sensor_id;sensor_type;location;lat;lon;timestamp;P1;durP1;ratioP1;P2;durP2;ratioP2
47659;SDS011;33403;43.608;1.458;2023-01-29T00:01:07;10.87;;;7.70;;
47659;SDS011;33403;43.608;1.458;2023-01-29T00:03:33;10.80;;;7.83;;
47659;SDS011;33403;43.608;1.458;2023-01-29T00:06:03;12.93;;;8.40;;
47659;SDS011;33403;43.608;1.458;2023-01-29T00:08:31;12.60;;;8.73;;
47659;SDS011;33403;43.608;1.458;2023-01-29T00:11:01;13.37;;;8.67;;
47659;SDS011;33403;43.608;1.458;2023-01-29T00:13:27;13.37;;;8.60;;
47659;SDS011;33403;43.608;1.458;2023-01-29T00:15:54;15.37;;;8.67;;
47659;SDS011;33403;43.608;1.458;2023-01-29T00:18:20;11.83;;;8.33;;
47659;SDS011;33403;43.608;1.458;2023-01-29T00:20:46;12.47;;;8.50;;
47659;SDS011;33403;43.608;1.458;2023-01-29T00:23:12;11.93;;;8.30;;
47659;SDS011;33403;43.608;1.458;2023-01-29T00:25:39;13.27;;;8.40;;
47659;SDS011;33403;43.608;1.458;2023-01-29T00:28:05;12.27;;;8.27;;
47659;SDS011;33403;43.608;1.458;2023-01-29T00:30:31;12.20;;;8.67;;
47659;SDS011;33403;43.608;1.458;2023-01-29T00:32:58;12.00;;;8.40;;
47659;SDS011;33403;43.608;1.458;2023-01-29T00:35:24;13.10;;;8.63;;
47659;SDS011;33403;43.608;1.458;2023-01-29T00:37:50;12.37;;;8.37;;
47659;SDS011;33403;43.608;1.458;2023-01-29T00:40:16;13.23;;;8.83;;
47659;SDS011;33403;43.608;1.458;2023-01-29T00:42:45;13.30;;;8.70;;
47659;SDS011;33403;43.608;1.458;2023-01-29T00:45:29;13.90;;;8.87;;
47659;SDS011;33403;43.608;1.458;2023-01-29T00:47:56;13.10;;;8.70;;
47659;SDS011;33403;43.608;1.458;2023-01-29T00:50:22;13.13;;;8.73;;
47659;SDS011;33403;43.608;1.458;2023-01-29T00:52:48;13.90;;;9.10;;
47659;SDS011;33403;43.608;1.458;2023-01-29T00:55:15;12.47;;;8.60;;
47659;SDS011;33403;43.608;1.458;2023-01-29T00:57:42;11.97;;;8.53;;
47659;SDS011;33403;43.608;1.458;2023-01-29T01:00:09;13.37;;;8.70;;
47659;SDS011;33403;43.608;1.458;2023-01-29T01:02:35;13.30;;;9.07;;
47659;SDS011;33403;43.608;1.458;2023-01-29T01:05:20;12.63;;;8.50;;
47659;SDS011;33403;43.608;1.458;2023-01-29T01:07:50;12.50;;;8.53;;
47659;SDS011;33403;43.608;1.458;2023-01-29T01:10:18;13.23;;;8.27;;
47659;SDS011;33403;43.608;1.458;2023-01-29T01:13:09;13.10;;;8.67;;
47659;SDS011;33403;43.608;1.458;2023-01-29T01:15:38;13.70;;;8.77;;
47659;SDS011;33403;43.608;1.458;2023-01-29T01:18:04;13.50;;;8.67;;
47659;SDS011;33403;43.608;1.458;2023-01-29T01:20:32;13.87;;;8.80;;
47659;SDS011;33403;43.608;1.458;2023-01-29T01:22:58;14.93;;;9.37;;
47659;SDS011;33403;43.608;1.458;2023-01-29T01:25:25;13.03;;;8.50;;
47659;SDS011;33403;43.608;1.458;2023-01-29T01:27:54;15.70;;;9.63;;
47659;SDS011;33403;43.608;1.458;2023-01-29T01:30:21;13.13;;;8.80;;
47659;SDS011;33403;43.608;1.458;2023-01-29T01:32:47;13.33;;;9.30;;
47659;SDS011;33403;43.608;1.458;2023-01-29T01:35:13;12.57;;;8.37;;
47659;SDS011;33403;43.608;1.458;2023-01-29T01:37:40;12.43;;;8.43;;
47659;SDS011;33403;43.608;1.458;2023-01-29T01:40:07;12.80;;;8.83;;
47659;SDS011;33403;43.608;1.458;2023-01-29T01:42:39;12.07;;;8.60;;
47659;SDS011;33403;43.608;1.458;2023-01-29T01:45:07;15.33;;;9.37;;
47659;SDS011;33403;43.608;1.458;2023-01-29T01:47:41;13.97;;;8.73;;
47659;SDS011;33403;43.608;1.458;2023-01-29T01:50:09;13.13;;;8.27;;
47659;SDS011;33403;43.608;1.458;2023-01-29T01:52:38;15.13;;;8.83;;
47659;SDS011;33403;43.608;1.458;2023-01-29T01:55:05;13.10;;;8.60;;
47659;SDS011;33403;43.608;1.458;2023-01-29T01:57:32;12.97;;;8.83;;
47659;SDS011;33403;43.608;1.458;2023-01-29T02:00:03;14.30;;;9.47;;
47659;SDS011;33403;43.608;1.458;2023-01-29T02:02:35;13.63;;;8.90;;
47659;SDS011;33403;43.608;1.458;2023-01-29T02:05:20;14.47;;;8.60;;
47659;SDS011;33403;43.608;1.458;2023-01-29T02:08:05;13.43;;;8.80;;
47659;SDS011;33403;43.608;1.458;2023-01-29T02:10:49;13.80;;;9.23;;
47659;SDS011;33403;43.608;1.458;2023-01-29T02:13:16;14.53;;;9.87;;
47659;SDS011;33403;43.608;1.458;2023-01-29T02:15:46;13.17;;;8.83;;
47659;SDS011;33403;43.608;1.458;2023-01-29T02:18:13;14.00;;;9.37;;
47659;SDS011;33403;43.608;1.458;2023-01-29T02:20:40;12.63;;;8.97;;
47659;SDS011;33403;43.608;1.458;2023-01-29T02:23:11;13.83;;;8.93;;
47659;SDS011;33403;43.608;1.458;2023-01-29T02:30:58;13.47;;;9.07;;
47659;SDS011;33403;43.608;1.458;2023-01-29T02:38:44;14.63;;;9.20;;
47659;SDS011;33403;43.608;1.458;2023-01-29T02:41:13;13.53;;;8.93;;
47659;SDS011;33403;43.608;1.458;2023-01-29T02:43:47;14.70;;;8.80;;
47659;SDS011;33403;43.608;1.458;2023-01-29T02:46:25;13.27;;;8.60;;
47659;SDS011;33403;43.608;1.458;2023-01-29T02:49:01;12.80;;;8.63;;
47659;SDS011;33403;43.608;1.458;2023-01-29T02:51:52;13.23;;;9.07;;
47659;SDS011;33403;43.608;1.458;2023-01-29T02:54:32;12.97;;;8.57;;
47659;SDS011;33403;43.608;1.458;2023-01-29T02:57:24;13.67;;;8.60;;
47659;SDS011;33403;43.608;1.458;2023-01-29T03:02:52;13.60;;;9.40;;
47659;SDS011;33403;43.608;1.458;2023-01-29T03:05:21;14.33;;;9.37;;
47659;SDS011;33403;43.608;1.458;2023-01-29T03:07:53;12.43;;;8.63;;
47659;SDS011;33403;43.608;1.458;2023-01-29T03:10:22;13.80;;;9.00;;
47659;SDS011;33403;43.608;1.458;2023-01-29T03:12:54;14.27;;;8.67;;
47659;SDS011;33403;43.608;1.458;2023-01-29T03:15:22;12.30;;;8.47;;
47659;SDS011;33403;43.608;1.458;2023-01-29T03:17:57;14.43;;;8.93;;
47659;SDS011;33403;43.608;1.458;2023-01-29T03:20:27;12.10;;;8.50;;
47659;SDS011;33403;43.608;1.458;2023-01-29T03:22:56;13.70;;;8.90;;
47659;SDS011;33403;43.608;1.458;2023-01-29T03:25:25;14.07;;;8.73;;
47659;SDS011;33403;43.608;1.458;2023-01-29T03:28:11;13.10;;;8.67;;
47659;SDS011;33403;43.608;1.458;2023-01-29T03:31:00;12.10;;;8.47;;
47659;SDS011;33403;43.608;1.458;2023-01-29T03:33:51;15.33;;;9.50;;
47659;SDS011;33403;43.608;1.458;2023-01-29T03:36:23;13.70;;;8.70;;
47659;SDS011;33403;43.608;1.458;2023-01-29T03:38:51;14.30;;;9.23;;
47659;SDS011;33403;43.608;1.458;2023-01-29T03:41:25;12.67;;;8.33;;
47659;SDS011;33403;43.608;1.458;2023-01-29T03:44:07;14.00;;;8.93;;
47659;SDS011;33403;43.608;1.458;2023-01-29T03:46:37;12.63;;;8.10;;
47659;SDS011;33403;43.608;1.458;2023-01-29T03:49:16;12.83;;;8.73;;
47659;SDS011;33403;43.608;1.458;2023-01-29T03:59:40;11.70;;;8.07;;
47659;SDS011;33403;43.608;1.458;2023-01-29T04:02:10;10.50;;;7.73;;
47659;SDS011;33403;43.608;1.458;2023-01-29T04:04:40;11.23;;;7.80;;
47659;SDS011;33403;43.608;1.458;2023-01-29T04:07:11;11.57;;;8.30;;
47659;SDS011;33403;43.608;1.458;2023-01-29T04:09:48;11.63;;;8.30;;
47659;SDS011;33403;43.608;1.458;2023-01-29T04:12:17;11.27;;;8.40;;
47659;SDS011;33403;43.608;1.458;2023-01-29T04:14:45;13.50;;;8.30;;
47659;SDS011;33403;43.608;1.458;2023-01-29T04:17:13;12.37;;;8.40;;
47659;SDS011;33403;43.608;1.458;2023-01-29T04:19:41;12.57;;;8.57;;
47659;SDS011;33403;43.608;1.458;2023-01-29T04:22:50;12.70;;;8.07;;
47659;SDS011;33403;43.608;1.458;2023-01-29T04:24:57;11.23;;;7.97;;
47659;SDS011;33403;43.608;1.458;2023-01-29T04:27:36;12.30;;;7.90;;
47659;SDS011;33403;43.608;1.458;2023-01-29T04:30:08;10.77;;;7.50;;
47659;SDS011;33403;43.608;1.458;2023-01-29T04:37:43;10.23;;;7.37;;
47659;SDS011;33403;43.608;1.458;2023-01-29T04:40:25;11.57;;;7.87;;
47659;SDS011;33403;43.608;1.458;2023-01-29T04:42:59;11.97;;;7.97;;
47659;SDS011;33403;43.608;1.458;2023-01-29T04:48:17;11.30;;;7.57;;
47659;SDS011;33403;43.608;1.458;2023-01-29T04:50:55;11.73;;;7.97;;
47659;SDS011;33403;43.608;1.458;2023-01-29T04:56:20;10.37;;;7.40;;
47659;SDS011;33403;43.608;1.458;2023-01-29T04:58:50;10.50;;;7.60;;
47659;SDS011;33403;43.608;1.458;2023-01-29T05:01:17;10.77;;;8.00;;
47659;SDS011;33403;43.608;1.458;2023-01-29T05:03:45;9.40;;;7.03;;
47659;SDS011;33403;43.608;1.458;2023-01-29T05:06:12;10.37;;;7.27;;
47659;SDS011;33403;43.608;1.458;2023-01-29T05:08:39;10.70;;;7.60;;
47659;SDS011;33403;43.608;1.458;2023-01-29T05:11:06;10.23;;;7.53;;
47659;SDS011;33403;43.608;1.458;2023-01-29T05:13:33;11.33;;;7.40;;
47659;SDS011;33403;43.608;1.458;2023-01-29T05:16:01;10.53;;;7.33;;
47659;SDS011;33403;43.608;1.458;2023-01-29T05:18:28;11.03;;;7.57;;
47659;SDS011;33403;43.608;1.458;2023-01-29T05:20:54;10.27;;;7.20;;
47659;SDS011;33403;43.608;1.458;2023-01-29T05:23:21;10.67;;;7.73;;
47659;SDS011;33403;43.608;1.458;2023-01-29T05:25:48;11.60;;;7.57;;
47659;SDS011;33403;43.608;1.458;2023-01-29T05:28:14;11.20;;;7.57;;
47659;SDS011;33403;43.608;1.458;2023-01-29T05:30:42;11.13;;;7.77;;
47659;SDS011;33403;43.608;1.458;2023-01-29T05:33:18;11.33;;;7.63;;
47659;SDS011;33403;43.608;1.458;2023-01-29T05:35:44;11.43;;;7.87;;
47659;SDS011;33403;43.608;1.458;2023-01-29T05:38:11;12.57;;;7.70;;
47659;SDS011;33403;43.608;1.458;2023-01-29T05:40:37;9.60;;;7.37;;
47659;SDS011;33403;43.608;1.458;2023-01-29T05:43:04;13.17;;;8.10;;
47659;SDS011;33403;43.608;1.458;2023-01-29T05:45:30;10.63;;;7.30;;
47659;SDS011;33403;43.608;1.458;2023-01-29T05:47:57;10.77;;;7.50;;
47659;SDS011;33403;43.608;1.458;2023-01-29T05:50:24;11.03;;;7.50;;
47659;SDS011;33403;43.608;1.458;2023-01-29T05:52:54;10.80;;;7.43;;
47659;SDS011;33403;43.608;1.458;2023-01-29T05:55:21;9.97;;;7.37;;
47659;SDS011;33403;43.608;1.458;2023-01-29T05:57:47;11.10;;;7.50;;
47659;SDS011;33403;43.608;1.458;2023-01-29T06:00:13;11.57;;;7.77;;
47659;SDS011;33403;43.608;1.458;2023-01-29T06:02:39;10.63;;;7.70;;
47659;SDS011;33403;43.608;1.458;2023-01-29T06:05:05;11.30;;;7.63;;
47659;SDS011;33403;43.608;1.458;2023-01-29T06:07:31;12.00;;;7.33;;
47659;SDS011;33403;43.608;1.458;2023-01-29T06:09:57;10.63;;;7.60;;
47659;SDS011;33403;43.608;1.458;2023-01-29T06:12:23;11.63;;;7.57;;
47659;SDS011;33403;43.608;1.458;2023-01-29T06:14:49;10.77;;;7.70;;
47659;SDS011;33403;43.608;1.458;2023-01-29T06:17:15;11.10;;;7.07;;
47659;SDS011;33403;43.608;1.458;2023-01-29T06:19:41;12.60;;;8.13;;
47659;SDS011;33403;43.608;1.458;2023-01-29T06:22:07;11.50;;;7.77;;
47659;SDS011;33403;43.608;1.458;2023-01-29T06:24:33;10.53;;;7.30;;
47659;SDS011;33403;43.608;1.458;2023-01-29T06:26:59;11.10;;;7.53;;
47659;SDS011;33403;43.608;1.458;2023-01-29T06:29:25;11.63;;;8.10;;
47659;SDS011;33403;43.608;1.458;2023-01-29T06:31:51;12.00;;;8.10;;
47659;SDS011;33403;43.608;1.458;2023-01-29T06:34:17;12.50;;;7.70;;
47659;SDS011;33403;43.608;1.458;2023-01-29T06:36:43;13.83;;;8.33;;
47659;SDS011;33403;43.608;1.458;2023-01-29T06:39:09;12.77;;;8.50;;
47659;SDS011;33403;43.608;1.458;2023-01-29T06:41:36;12.73;;;8.23;;
47659;SDS011;33403;43.608;1.458;2023-01-29T06:44:02;13.37;;;7.80;;
47659;SDS011;33403;43.608;1.458;2023-01-29T06:46:28;11.40;;;7.80;;
47659;SDS011;33403;43.608;1.458;2023-01-29T06:48:56;12.70;;;8.40;;
47659;SDS011;33403;43.608;1.458;2023-01-29T06:51:23;10.73;;;7.57;;
47659;SDS011;33403;43.608;1.458;2023-01-29T06:53:49;12.23;;;8.30;;
47659;SDS011;33403;43.608;1.458;2023-01-29T06:56:15;12.70;;;8.40;;
47659;SDS011;33403;43.608;1.458;2023-01-29T06:58:41;11.97;;;8.00;;
47659;SDS011;33403;43.608;1.458;2023-01-29T07:01:08;12.53;;;8.10;;
47659;SDS011;33403;43.608;1.458;2023-01-29T07:03:35;11.87;;;7.87;;
47659;SDS011;33403;43.608;1.458;2023-01-29T07:06:01;12.70;;;8.57;;
47659;SDS011;33403;43.608;1.458;2023-01-29T07:08:27;14.07;;;8.57;;
47659;SDS011;33403;43.608;1.458;2023-01-29T07:10:57;12.10;;;8.47;;
47659;SDS011;33403;43.608;1.458;2023-01-29T07:13:24;12.80;;;8.17;;
47659;SDS011;33403;43.608;1.458;2023-01-29T07:15:50;12.83;;;8.63;;
47659;SDS011;33403;43.608;1.458;2023-01-29T07:18:16;11.97;;;8.20;;
47659;SDS011;33403;43.608;1.458;2023-01-29T07:20:42;15.83;;;9.27;;
47659;SDS011;33403;43.608;1.458;2023-01-29T07:23:09;13.13;;;8.90;;
47659;SDS011;33403;43.608;1.458;2023-01-29T07:25:36;14.73;;;9.13;;
47659;SDS011;33403;43.608;1.458;2023-01-29T07:28:02;13.53;;;8.80;;
47659;SDS011;33403;43.608;1.458;2023-01-29T07:30:28;14.47;;;9.17;;
47659;SDS011;33403;43.608;1.458;2023-01-29T07:32:55;15.17;;;8.97;;
47659;SDS011;33403;43.608;1.458;2023-01-29T07:35:21;13.80;;;8.93;;
47659;SDS011;33403;43.608;1.458;2023-01-29T07:37:50;16.00;;;9.70;;
47659;SDS011;33403;43.608;1.458;2023-01-29T07:40:16;14.00;;;8.87;;
47659;SDS011;33403;43.608;1.458;2023-01-29T07:42:42;13.23;;;8.63;;
47659;SDS011;33403;43.608;1.458;2023-01-29T07:45:09;12.60;;;8.63;;
47659;SDS011;33403;43.608;1.458;2023-01-29T07:47:36;15.80;;;9.13;;
47659;SDS011;33403;43.608;1.458;2023-01-29T07:50:02;14.63;;;9.03;;
47659;SDS011;33403;43.608;1.458;2023-01-29T07:52:29;14.73;;;9.47;;
47659;SDS011;33403;43.608;1.458;2023-01-29T07:54:55;15.33;;;9.10;;
47659;SDS011;33403;43.608;1.458;2023-01-29T07:57:21;13.47;;;8.93;;
47659;SDS011;33403;43.608;1.458;2023-01-29T07:59:47;14.40;;;9.03;;
47659;SDS011;33403;43.608;1.458;2023-01-29T08:02:13;14.30;;;9.07;;
47659;SDS011;33403;43.608;1.458;2023-01-29T08:04:39;14.23;;;9.73;;
47659;SDS011;33403;43.608;1.458;2023-01-29T08:07:05;12.67;;;8.30;;
47659;SDS011;33403;43.608;1.458;2023-01-29T08:09:33;12.87;;;8.50;;
47659;SDS011;33403;43.608;1.458;2023-01-29T08:11:59;13.80;;;8.77;;
47659;SDS011;33403;43.608;1.458;2023-01-29T08:14:25;12.97;;;8.67;;
47659;SDS011;33403;43.608;1.458;2023-01-29T08:16:51;13.40;;;8.73;;
47659;SDS011;33403;43.608;1.458;2023-01-29T08:19:17;14.17;;;8.80;;
47659;SDS011;33403;43.608;1.458;2023-01-29T08:21:43;13.33;;;8.90;;
47659;SDS011;33403;43.608;1.458;2023-01-29T08:24:09;16.13;;;8.73;;
47659;SDS011;33403;43.608;1.458;2023-01-29T08:26:35;15.93;;;9.20;;
47659;SDS011;33403;43.608;1.458;2023-01-29T08:29:01;14.07;;;9.00;;
47659;SDS011;33403;43.608;1.458;2023-01-29T08:31:27;14.70;;;9.03;;
47659;SDS011;33403;43.608;1.458;2023-01-29T08:33:53;17.30;;;9.17;;
47659;SDS011;33403;43.608;1.458;2023-01-29T08:36:20;14.97;;;9.37;;
47659;SDS011;33403;43.608;1.458;2023-01-29T08:38:47;15.60;;;9.80;;
47659;SDS011;33403;43.608;1.458;2023-01-29T08:41:13;14.87;;;9.73;;
47659;SDS011;33403;43.608;1.458;2023-01-29T08:43:39;14.97;;;9.83;;
47659;SDS011;33403;43.608;1.458;2023-01-29T08:46:05;16.97;;;9.97;;
47659;SDS011;33403;43.608;1.458;2023-01-29T08:48:32;14.13;;;9.33;;
47659;SDS011;33403;43.608;1.458;2023-01-29T08:50:58;13.23;;;9.33;;
47659;SDS011;33403;43.608;1.458;2023-01-29T08:53:24;13.93;;;9.43;;
47659;SDS011;33403;43.608;1.458;2023-01-29T08:55:51;14.13;;;9.63;;
47659;SDS011;33403;43.608;1.458;2023-01-29T08:58:17;14.87;;;9.77;;
47659;SDS011;33403;43.608;1.458;2023-01-29T09:00:43;15.07;;;9.90;;
47659;SDS011;33403;43.608;1.458;2023-01-29T09:03:09;19.97;;;10.77;;
47659;SDS011;33403;43.608;1.458;2023-01-29T09:05:35;15.90;;;9.90;;
47659;SDS011;33403;43.608;1.458;2023-01-29T09:08:02;15.43;;;9.67;;
47659;SDS011;33403;43.608;1.458;2023-01-29T09:10:28;14.57;;;9.80;;
47659;SDS011;33403;43.608;1.458;2023-01-29T09:12:54;16.40;;;10.37;;
47659;SDS011;33403;43.608;1.458;2023-01-29T09:15:20;15.33;;;10.27;;
47659;SDS011;33403;43.608;1.458;2023-01-29T09:17:46;14.87;;;9.70;;
47659;SDS011;33403;43.608;1.458;2023-01-29T09:20:15;15.60;;;10.07;;
47659;SDS011;33403;43.608;1.458;2023-01-29T09:22:42;16.20;;;10.23;;
47659;SDS011;33403;43.608;1.458;2023-01-29T09:25:08;16.80;;;9.93;;
47659;SDS011;33403;43.608;1.458;2023-01-29T09:27:34;15.87;;;10.47;;
47659;SDS011;33403;43.608;1.458;2023-01-29T09:30:01;16.77;;;10.40;;
47659;SDS011;33403;43.608;1.458;2023-01-29T09:32:27;16.33;;;10.20;;
47659;SDS011;33403;43.608;1.458;2023-01-29T09:34:54;17.90;;;10.60;;
47659;SDS011;33403;43.608;1.458;2023-01-29T09:37:20;15.67;;;10.20;;
47659;SDS011;33403;43.608;1.458;2023-01-29T09:39:47;17.50;;;10.47;;
47659;SDS011;33403;43.608;1.458;2023-01-29T09:44:47;15.87;;;10.57;;
47659;SDS011;33403;43.608;1.458;2023-01-29T09:47:17;17.00;;;11.00;;
47659;SDS011;33403;43.608;1.458;2023-01-29T09:50:00;16.23;;;10.53;;
47659;SDS011;33403;43.608;1.458;2023-01-29T09:52:37;15.63;;;10.70;;
47659;SDS011;33403;43.608;1.458;2023-01-29T09:57:42;17.70;;;10.70;;
47659;SDS011;33403;43.608;1.458;2023-01-29T10:00:14;16.07;;;10.43;;
47659;SDS011;33403;43.608;1.458;2023-01-29T10:03:15;16.00;;;10.40;;
47659;SDS011;33403;43.608;1.458;2023-01-29T10:08:22;14.97;;;9.57;;
47659;SDS011;33403;43.608;1.458;2023-01-29T10:10:56;18.13;;;11.20;;
47659;SDS011;33403;43.608;1.458;2023-01-29T10:13:29;16.60;;;11.30;;
47659;SDS011;33403;43.608;1.458;2023-01-29T10:18:55;15.77;;;10.20;;
47659;SDS011;33403;43.608;1.458;2023-01-29T10:21:31;16.77;;;9.90;;
47659;SDS011;33403;43.608;1.458;2023-01-29T10:24:17;17.07;;;10.30;;
47659;SDS011;33403;43.608;1.458;2023-01-29T10:26:47;15.50;;;9.97;;
47659;SDS011;33403;43.608;1.458;2023-01-29T10:29:14;14.77;;;9.93;;
47659;SDS011;33403;43.608;1.458;2023-01-29T10:31:42;14.63;;;9.73;;
47659;SDS011;33403;43.608;1.458;2023-01-29T10:34:13;15.23;;;10.03;;
47659;SDS011;33403;43.608;1.458;2023-01-29T10:36:43;15.20;;;10.10;;
47659;SDS011;33403;43.608;1.458;2023-01-29T11:01:57;13.57;;;9.20;;
47659;SDS011;33403;43.608;1.458;2023-01-29T11:04:24;11.63;;;8.00;;
47659;SDS011;33403;43.608;1.458;2023-01-29T11:06:51;11.83;;;8.47;;
47659;SDS011;33403;43.608;1.458;2023-01-29T11:12:29;12.03;;;8.27;;
47659;SDS011;33403;43.608;1.458;2023-01-29T11:14:55;12.10;;;8.27;;
47659;SDS011;33403;43.608;1.458;2023-01-29T11:17:24;12.73;;;8.47;;
47659;SDS011;33403;43.608;1.458;2023-01-29T11:19:51;11.53;;;8.43;;
47659;SDS011;33403;43.608;1.458;2023-01-29T11:22:20;12.63;;;8.30;;
47659;SDS011;33403;43.608;1.458;2023-01-29T11:24:46;11.73;;;8.10;;
47659;SDS011;33403;43.608;1.458;2023-01-29T11:27:32;11.47;;;8.00;;
47659;SDS011;33403;43.608;1.458;2023-01-29T11:29:59;11.57;;;8.47;;
47659;SDS011;33403;43.608;1.458;2023-01-29T11:32:29;13.20;;;8.70;;
47659;SDS011;33403;43.608;1.458;2023-01-29T11:39:58;12.23;;;8.80;;
47659;SDS011;33403;43.608;1.458;2023-01-29T11:42:25;13.53;;;9.10;;
47659;SDS011;33403;43.608;1.458;2023-01-29T11:44:55;14.03;;;8.83;;
47659;SDS011;33403;43.608;1.458;2023-01-29T11:47:22;15.47;;;8.97;;
47659;SDS011;33403;43.608;1.458;2023-01-29T11:49:54;12.03;;;8.73;;
47659;SDS011;33403;43.608;1.458;2023-01-29T11:52:34;12.63;;;8.73;;
47659;SDS011;33403;43.608;1.458;2023-01-29T11:55:02;14.77;;;8.97;;
47659;SDS011;33403;43.608;1.458;2023-01-29T11:57:34;11.13;;;8.13;;
47659;SDS011;33403;43.608;1.458;2023-01-29T12:00:20;11.47;;;8.20;;
47659;SDS011;33403;43.608;1.458;2023-01-29T12:02:48;16.40;;;8.50;;
47659;SDS011;33403;43.608;1.458;2023-01-29T12:05:20;11.83;;;8.00;;
47659;SDS011;33403;43.608;1.458;2023-01-29T12:07:50;12.23;;;8.60;;
47659;SDS011;33403;43.608;1.458;2023-01-29T12:10:36;12.50;;;8.03;;
47659;SDS011;33403;43.608;1.458;2023-01-29T12:15:38;12.07;;;8.10;;
47659;SDS011;33403;43.608;1.458;2023-01-29T12:20:36;11.87;;;7.70;;
47659;SDS011;33403;43.608;1.458;2023-01-29T12:35:43;10.67;;;7.50;;
47659;SDS011;33403;43.608;1.458;2023-01-29T12:38:20;13.17;;;8.37;;
47659;SDS011;33403;43.608;1.458;2023-01-29T12:40:50;10.50;;;7.53;;
47659;SDS011;33403;43.608;1.458;2023-01-29T12:45:53;10.70;;;7.70;;
47659;SDS011;33403;43.608;1.458;2023-01-29T12:48:22;9.33;;;7.07;;
47659;SDS011;33403;43.608;1.458;2023-01-29T12:50:49;9.30;;;7.07;;
47659;SDS011;33403;43.608;1.458;2023-01-29T12:53:24;10.33;;;7.27;;
47659;SDS011;33403;43.608;1.458;2023-01-29T12:55:56;11.07;;;7.17;;
47659;SDS011;33403;43.608;1.458;2023-01-29T12:58:43;10.83;;;7.13;;
47659;SDS011;33403;43.608;1.458;2023-01-29T13:01:22;9.20;;;6.03;;
47659;SDS011;33403;43.608;1.458;2023-01-29T13:04:04;9.27;;;6.40;;
47659;SDS011;33403;43.608;1.458;2023-01-29T13:06:35;8.93;;;6.80;;
47659;SDS011;33403;43.608;1.458;2023-01-29T13:09:08;10.47;;;6.97;;
47659;SDS011;33403;43.608;1.458;2023-01-29T13:11:38;8.40;;;6.53;;
47659;SDS011;33403;43.608;1.458;2023-01-29T13:16:37;8.13;;;6.43;;
47659;SDS011;33403;43.608;1.458;2023-01-29T13:19:13;11.00;;;6.80;;
47659;SDS011;33403;43.608;1.458;2023-01-29T13:21:43;13.77;;;7.10;;
47659;SDS011;33403;43.608;1.458;2023-01-29T13:24:20;10.03;;;7.40;;
47659;SDS011;33403;43.608;1.458;2023-01-29T13:26:47;13.60;;;9.20;;
47659;SDS011;33403;43.608;1.458;2023-01-29T13:29:21;14.43;;;9.60;;
47659;SDS011;33403;43.608;1.458;2023-01-29T13:31:48;20.13;;;12.70;;
47659;SDS011;33403;43.608;1.458;2023-01-29T13:36:47;28.67;;;14.80;;
47659;SDS011;33403;43.608;1.458;2023-01-29T13:44:49;41.07;;;15.13;;
47659;SDS011;33403;43.608;1.458;2023-01-29T13:47:25;17.00;;;9.40;;
47659;SDS011;33403;43.608;1.458;2023-01-29T13:50:02;13.13;;;8.10;;
47659;SDS011;33403;43.608;1.458;2023-01-29T13:55:03;19.40;;;9.87;;
47659;SDS011;33403;43.608;1.458;2023-01-29T14:00:03;13.63;;;7.87;;
47659;SDS011;33403;43.608;1.458;2023-01-29T14:02:29;17.20;;;9.17;;
47659;SDS011;33403;43.608;1.458;2023-01-29T14:07:47;19.37;;;10.97;;
47659;SDS011;33403;43.608;1.458;2023-01-29T14:10:15;32.53;;;15.63;;
47659;SDS011;33403;43.608;1.458;2023-01-29T14:12:42;12.70;;;8.00;;
47659;SDS011;33403;43.608;1.458;2023-01-29T14:17:53;12.93;;;7.97;;
47659;SDS011;33403;43.608;1.458;2023-01-29T14:20:22;16.30;;;8.03;;
47659;SDS011;33403;43.608;1.458;2023-01-29T14:22:55;15.67;;;9.20;;
47659;SDS011;33403;43.608;1.458;2023-01-29T14:25:27;17.93;;;9.67;;
47659;SDS011;33403;43.608;1.458;2023-01-29T14:27:53;10.87;;;7.50;;
47659;SDS011;33403;43.608;1.458;2023-01-29T14:30:20;8.90;;;6.90;;
47659;SDS011;33403;43.608;1.458;2023-01-29T14:32:47;10.20;;;7.37;;
47659;SDS011;33403;43.608;1.458;2023-01-29T14:35:20;11.73;;;7.30;;
47659;SDS011;33403;43.608;1.458;2023-01-29T14:37:47;11.03;;;7.47;;
47659;SDS011;33403;43.608;1.458;2023-01-29T14:43:03;9.97;;;7.57;;
47659;SDS011;33403;43.608;1.458;2023-01-29T14:45:34;10.37;;;7.37;;
47659;SDS011;33403;43.608;1.458;2023-01-29T14:55:42;11.70;;;7.83;;
47659;SDS011;33403;43.608;1.458;2023-01-29T14:58:13;9.80;;;7.20;;
47659;SDS011;33403;43.608;1.458;2023-01-29T15:00:41;9.90;;;7.00;;
47659;SDS011;33403;43.608;1.458;2023-01-29T15:03:50;11.03;;;7.60;;
47659;SDS011;33403;43.608;1.458;2023-01-29T15:05:57;10.97;;;7.50;;
47659;SDS011;33403;43.608;1.458;2023-01-29T15:08:42;12.20;;;8.07;;
47659;SDS011;33403;43.608;1.458;2023-01-29T15:11:14;11.67;;;7.70;;
47659;SDS011;33403;43.608;1.458;2023-01-29T15:16:33;12.13;;;7.80;;
47659;SDS011;33403;43.608;1.458;2023-01-29T15:19:07;12.77;;;8.33;;
47659;SDS011;33403;43.608;1.458;2023-01-29T15:21:37;11.87;;;7.90;;
47659;SDS011;33403;43.608;1.458;2023-01-29T15:24:04;13.10;;;8.33;;
47659;SDS011;33403;43.608;1.458;2023-01-29T15:26:30;12.97;;;8.47;;
47659;SDS011;33403;43.608;1.458;2023-01-29T15:28:57;14.07;;;8.40;;
47659;SDS011;33403;43.608;1.458;2023-01-29T15:31:24;12.00;;;8.00;;
47659;SDS011;33403;43.608;1.458;2023-01-29T15:33:50;12.43;;;8.07;;
47659;SDS011;33403;43.608;1.458;2023-01-29T15:36:28;12.27;;;7.63;;
47659;SDS011;33403;43.608;1.458;2023-01-29T15:41:39;12.27;;;8.17;;
47659;SDS011;33403;43.608;1.458;2023-01-29T15:44:13;11.10;;;7.83;;
47659;SDS011;33403;43.608;1.458;2023-01-29T15:46:40;11.23;;;8.10;;
47659;SDS011;33403;43.608;1.458;2023-01-29T15:49:08;11.70;;;8.03;;
47659;SDS011;33403;43.608;1.458;2023-01-29T15:51:34;12.37;;;7.90;;
47659;SDS011;33403;43.608;1.458;2023-01-29T15:54:04;11.47;;;7.70;;
47659;SDS011;33403;43.608;1.458;2023-01-29T15:56:33;11.83;;;7.83;;
47659;SDS011;33403;43.608;1.458;2023-01-29T15:59:01;12.17;;;8.10;;
47659;SDS011;33403;43.608;1.458;2023-01-29T16:01:28;11.37;;;7.60;;
47659;SDS011;33403;43.608;1.458;2023-01-29T16:03:54;11.53;;;7.97;;
47659;SDS011;33403;43.608;1.458;2023-01-29T16:06:21;12.33;;;8.00;;
47659;SDS011;33403;43.608;1.458;2023-01-29T16:08:51;12.67;;;7.80;;
47659;SDS011;33403;43.608;1.458;2023-01-29T16:11:18;9.77;;;7.00;;
47659;SDS011;33403;43.608;1.458;2023-01-29T16:13:45;10.50;;;7.03;;
47659;SDS011;33403;43.608;1.458;2023-01-29T16:18:42;9.73;;;7.17;;
47659;SDS011;33403;43.608;1.458;2023-01-29T16:23:42;11.57;;;7.60;;
47659;SDS011;33403;43.608;1.458;2023-01-29T16:26:11;10.40;;;7.23;;
47659;SDS011;33403;43.608;1.458;2023-01-29T16:28:39;10.50;;;7.03;;
47659;SDS011;33403;43.608;1.458;2023-01-29T16:31:06;11.43;;;7.43;;
47659;SDS011;33403;43.608;1.458;2023-01-29T16:33:33;11.10;;;7.57;;
47659;SDS011;33403;43.608;1.458;2023-01-29T16:36:00;10.87;;;7.50;;
47659;SDS011;33403;43.608;1.458;2023-01-29T16:38:30;12.37;;;7.80;;
47659;SDS011;33403;43.608;1.458;2023-01-29T16:41:04;10.83;;;7.60;;
47659;SDS011;33403;43.608;1.458;2023-01-29T16:46:00;12.80;;;8.10;;
47659;SDS011;33403;43.608;1.458;2023-01-29T16:48:33;12.10;;;8.00;;
47659;SDS011;33403;43.608;1.458;2023-01-29T16:56:24;13.00;;;8.40;;
47659;SDS011;33403;43.608;1.458;2023-01-29T16:58:51;13.33;;;8.50;;
47659;SDS011;33403;43.608;1.458;2023-01-29T17:01:18;13.67;;;9.10;;
47659;SDS011;33403;43.608;1.458;2023-01-29T17:03:47;12.63;;;8.37;;
47659;SDS011;33403;43.608;1.458;2023-01-29T17:06:20;17.27;;;10.00;;
47659;SDS011;33403;43.608;1.458;2023-01-29T17:08:47;16.70;;;10.00;;
47659;SDS011;33403;43.608;1.458;2023-01-29T17:11:22;24.13;;;12.80;;